createdAt,value
2018-09-16T00:00:36.903Z,14.13
2018-09-16T00:03:04.071Z,14.19
2018-09-16T00:05:31.314Z,14.16
2018-09-16T00:07:58.682Z,14.00
2018-09-16T00:10:25.985Z,13.98
2018-09-16T00:12:53.254Z,14.00
2018-09-16T00:15:20.437Z,13.94
2018-09-16T00:17:47.655Z,13.98
2018-09-16T00:20:14.913Z,14.01
2018-09-16T00:22:42.114Z,13.93
2018-09-16T00:25:09.258Z,13.86
2018-09-16T00:27:36.438Z,13.81
2018-09-16T00:30:03.892Z,13.88
2018-09-16T00:32:36.745Z,13.87
2018-09-16T00:35:03.886Z,13.92
2018-09-16T00:37:31.049Z,13.73
2018-09-16T00:39:58.271Z,11.58
2018-09-16T00:42:25.489Z,13.60
2018-09-16T00:44:52.866Z,13.58
2018-09-16T00:47:20.154Z,13.40
2018-09-16T00:49:47.305Z,13.36
2018-09-16T00:52:14.432Z,13.35
2018-09-16T00:54:41.607Z,13.31
2018-09-16T00:57:08.832Z,13.38
2018-09-16T00:59:35.969Z,13.32
2018-09-16T01:02:03.118Z,13.39
2018-09-16T01:04:30.287Z,13.42
2018-09-16T01:06:57.805Z,13.44
2018-09-16T01:09:24.965Z,13.21
2018-09-16T01:11:52.144Z,13.39
2018-09-16T01:14:19.332Z,13.32
2018-09-16T01:16:47.079Z,13.20
2018-09-16T01:19:14.329Z,13.27
2018-09-16T01:21:41.479Z,13.26
2018-09-16T01:24:08.652Z,13.26
2018-09-16T01:26:36.180Z,13.20
2018-09-16T01:29:03.426Z,13.22
2018-09-16T01:31:30.564Z,13.19
2018-09-16T01:33:58.011Z,13.20
2018-09-16T01:36:25.150Z,13.17
2018-09-16T01:38:56.213Z,13.16
2018-09-16T01:41:23.683Z,13.13
2018-09-16T01:43:51.095Z,13.13
2018-09-16T01:46:18.254Z,13.15
2018-09-16T01:48:45.704Z,13.08
2018-09-16T01:51:13.596Z,13.00
2018-09-16T01:53:41.084Z,13.05
2018-09-16T01:56:08.627Z,12.80
2018-09-16T01:58:35.951Z,12.78
2018-09-16T02:01:03.171Z,12.70
2018-09-16T02:03:30.353Z,12.82
2018-09-16T02:05:57.496Z,12.83
2018-09-16T02:08:25.573Z,12.84
2018-09-16T02:10:53.138Z,12.87
2018-09-16T02:13:20.284Z,12.77
2018-09-16T02:15:47.509Z,12.81
2018-09-16T02:18:14.731Z,12.88
2018-09-16T02:20:42.405Z,12.89
2018-09-16T02:23:10.461Z,12.69
2018-09-16T02:25:37.679Z,12.57
2018-09-16T02:28:04.869Z,12.56
2018-09-16T02:30:32.122Z,12.58
2018-09-16T02:32:59.296Z,12.54
2018-09-16T02:35:26.433Z,12.50
2018-09-16T02:37:53.611Z,12.48
2018-09-16T02:40:20.761Z,12.46
2018-09-16T02:42:47.898Z,12.52
2018-09-16T02:45:15.441Z,12.42
2018-09-16T02:47:42.650Z,12.40
2018-09-16T02:50:09.810Z,12.11
2018-09-16T02:52:36.984Z,12.36
2018-09-16T02:55:04.212Z,12.28
2018-09-16T02:57:32.016Z,12.23
2018-09-16T02:59:59.322Z,12.35
2018-09-16T03:02:26.489Z,12.39
2018-09-16T03:04:53.657Z,12.28
2018-09-16T03:07:20.836Z,12.12
2018-09-16T03:09:48.059Z,12.17
2018-09-16T03:12:15.234Z,12.28
2018-09-16T03:14:42.413Z,12.23
2018-09-16T03:17:09.604Z,12.24
2018-09-16T03:19:36.827Z,12.31
2018-09-16T03:22:03.984Z,12.28
2018-09-16T03:24:31.124Z,12.12
2018-09-16T03:26:58.478Z,12.12
2018-09-16T03:29:25.641Z,12.02
2018-09-16T03:31:52.799Z,11.93
2018-09-16T03:34:19.971Z,12.03
2018-09-16T03:36:47.098Z,12.03
2018-09-16T03:39:14.271Z,11.96
2018-09-16T03:41:41.387Z,11.83
2018-09-16T03:44:08.575Z,11.81
2018-09-16T03:46:35.816Z,11.82
2018-09-16T03:49:03.015Z,11.83
2018-09-16T03:51:30.447Z,11.86
2018-09-16T03:53:57.630Z,11.85
2018-09-16T03:56:24.953Z,11.95
2018-09-16T03:58:52.256Z,11.98
2018-09-16T04:01:19.502Z,11.83
2018-09-16T04:03:46.656Z,11.70
2018-09-16T04:06:13.829Z,11.78
2018-09-16T04:08:40.976Z,11.92
2018-09-16T04:11:08.216Z,11.86
2018-09-16T04:13:35.382Z,11.91
2018-09-16T04:16:02.613Z,11.92
2018-09-16T04:18:29.913Z,11.87
2018-09-16T04:20:57.200Z,11.79
2018-09-16T04:23:24.374Z,11.73
2018-09-16T04:25:51.537Z,11.68
2018-09-16T04:28:18.678Z,11.68
2018-09-16T04:30:45.829Z,11.68
2018-09-16T04:33:12.961Z,11.61
2018-09-16T04:35:40.128Z,11.61
2018-09-16T04:38:07.273Z,11.28
2018-09-16T04:40:34.569Z,11.28
2018-09-16T04:43:01.714Z,11.27
2018-09-16T04:45:28.953Z,11.36
2018-09-16T04:47:56.115Z,11.45
2018-09-16T04:50:23.249Z,11.38
2018-09-16T04:52:50.424Z,11.44
2018-09-16T04:55:17.584Z,11.43
2018-09-16T04:57:44.781Z,11.40
2018-09-16T05:00:11.951Z,11.56
2018-09-16T05:02:39.453Z,11.48
2018-09-16T05:05:06.697Z,11.50
2018-09-16T05:07:33.899Z,11.43
2018-09-16T05:10:01.014Z,11.33
2018-09-16T05:12:28.221Z,11.29
2018-09-16T05:14:55.394Z,11.16
2018-09-16T05:17:22.554Z,11.20
2018-09-16T05:19:49.700Z,11.26
2018-09-16T05:22:16.850Z,11.12
2018-09-16T05:24:44.010Z,11.15
2018-09-16T05:27:11.161Z,11.20
2018-09-16T05:29:38.326Z,11.23
2018-09-16T05:32:05.674Z,11.22
2018-09-16T05:34:32.827Z,11.29
2018-09-16T05:36:59.989Z,11.02
2018-09-16T05:39:27.162Z,10.96
2018-09-16T05:41:54.321Z,11.13
2018-09-16T05:44:21.510Z,11.20
2018-09-16T05:46:48.711Z,11.14
2018-09-16T05:49:15.962Z,11.12
2018-09-16T05:51:43.113Z,11.33
2018-09-16T05:54:10.311Z,11.40
2018-09-16T05:56:37.512Z,11.43
2018-09-16T05:59:04.820Z,11.47
2018-09-16T06:01:32.001Z,11.38
2018-09-16T06:03:59.208Z,11.27
2018-09-16T06:06:26.363Z,11.23
2018-09-16T06:08:53.598Z,11.28
2018-09-16T06:11:20.724Z,11.31
2018-09-16T06:13:48.190Z,11.32
2018-09-16T06:16:15.340Z,11.29
2018-09-16T06:18:42.501Z,11.39
2018-09-16T06:21:09.771Z,11.61
2018-09-16T06:23:37.009Z,11.89
2018-09-16T06:26:04.177Z,12.12
2018-09-16T06:28:31.282Z,12.19
2018-09-16T06:30:58.438Z,12.21
2018-09-16T06:33:25.590Z,12.22
2018-09-16T06:35:52.758Z,12.31
2018-09-16T06:38:19.947Z,12.21
2018-09-16T06:40:47.117Z,12.29
2018-09-16T06:43:14.311Z,12.35
2018-09-16T06:45:41.550Z,12.53
2018-09-16T06:48:08.725Z,12.57
2018-09-16T06:50:35.893Z,12.67
2018-09-16T06:53:03.071Z,12.73
2018-09-16T06:55:30.251Z,12.73
2018-09-16T06:57:57.418Z,12.87
2018-09-16T07:00:24.617Z,12.99
2018-09-16T07:02:51.919Z,13.13
2018-09-16T07:05:19.105Z,13.28
2018-09-16T07:07:46.250Z,13.44
2018-09-16T07:10:13.426Z,13.56
2018-09-16T07:12:40.585Z,13.65
2018-09-16T07:15:07.921Z,13.77
2018-09-16T07:17:35.102Z,13.83
2018-09-16T07:20:02.320Z,14.04
2018-09-16T07:22:29.483Z,14.16
2018-09-16T07:24:56.726Z,14.30
2018-09-16T07:27:24.030Z,14.39
2018-09-16T07:29:51.162Z,14.51
2018-09-16T07:32:18.346Z,14.62
2018-09-16T07:34:46.124Z,14.75
2018-09-16T07:37:13.323Z,14.96
2018-09-16T07:39:40.461Z,15.19
2018-09-16T07:42:07.650Z,15.33
2018-09-16T07:44:34.854Z,15.49
2018-09-16T07:47:02.026Z,15.56
2018-09-16T07:49:29.191Z,15.68
2018-09-16T07:51:56.360Z,15.82
2018-09-16T07:54:23.616Z,15.90
2018-09-16T07:56:51.207Z,16.05
2018-09-16T07:59:18.417Z,16.16
2018-09-16T08:01:45.606Z,16.25
2018-09-16T08:04:12.898Z,16.35
2018-09-16T08:06:40.074Z,16.48
2018-09-16T08:09:07.665Z,16.68
2018-09-16T08:11:34.817Z,16.85
2018-09-16T08:14:02.008Z,17.01
2018-09-16T08:16:29.327Z,17.14
2018-09-16T08:18:56.510Z,17.28
2018-09-16T08:21:23.821Z,17.43
2018-09-16T08:23:50.932Z,17.64
2018-09-16T08:26:18.083Z,17.74
2018-09-16T08:28:45.300Z,17.86
2018-09-16T08:31:12.481Z,18.02
2018-09-16T08:33:39.678Z,17.93
2018-09-16T08:36:06.826Z,18.26
2018-09-16T08:38:33.946Z,18.33
2018-09-16T08:41:01.168Z,18.45
2018-09-16T08:43:28.339Z,18.56
2018-09-16T08:45:55.500Z,18.66
2018-09-16T08:48:22.650Z,18.79
2018-09-16T08:50:49.854Z,18.88
2018-09-16T08:53:17.189Z,19.03
2018-09-16T08:55:44.347Z,19.17
2018-09-16T08:58:11.534Z,19.26
2018-09-16T09:00:38.668Z,19.35
2018-09-16T09:03:05.847Z,19.49
2018-09-16T09:05:33.125Z,19.57
2018-09-16T09:08:00.286Z,19.68
2018-09-16T09:10:27.467Z,19.79
2018-09-16T09:12:58.563Z,19.88
2018-09-16T09:15:25.906Z,20.00
2018-09-16T09:17:53.211Z,20.09
2018-09-16T09:20:20.468Z,20.18
2018-09-16T09:22:47.704Z,20.26
2018-09-16T09:25:14.959Z,20.36
2018-09-16T09:27:42.176Z,20.41
2018-09-16T09:30:09.989Z,20.49
2018-09-16T09:32:37.230Z,20.63
2018-09-16T09:35:04.512Z,20.72
2018-09-16T09:37:31.841Z,20.78
2018-09-16T09:39:58.991Z,20.85
2018-09-16T09:42:26.323Z,20.89
2018-09-16T09:44:53.554Z,20.92
2018-09-16T09:47:20.814Z,20.92
2018-09-16T09:49:48.103Z,21.03
2018-09-16T09:52:15.277Z,21.15
2018-09-16T09:54:42.459Z,21.22
2018-09-16T09:57:09.820Z,21.24
2018-09-16T09:59:37.579Z,21.29
2018-09-16T10:02:05.388Z,21.36
2018-09-16T10:04:32.722Z,21.44
2018-09-16T10:07:01.594Z,21.55
2018-09-16T10:09:29.042Z,21.70
2018-09-16T10:11:56.311Z,21.73
2018-09-16T10:14:23.560Z,21.81
2018-09-16T10:16:50.761Z,21.81
2018-09-16T10:19:19.026Z,21.91
2018-09-16T10:21:46.286Z,21.96
2018-09-16T10:24:13.554Z,22.08
2018-09-16T10:26:40.737Z,22.17
2018-09-16T10:29:08.037Z,22.23
2018-09-16T10:31:35.361Z,22.39
2018-09-16T10:34:02.598Z,22.51
2018-09-16T10:36:29.871Z,22.57
2018-09-16T10:38:57.264Z,22.68
2018-09-16T10:41:24.571Z,22.74
2018-09-16T10:43:51.870Z,22.80
2018-09-16T10:46:19.021Z,22.88
2018-09-16T10:48:46.266Z,23.03
2018-09-16T10:51:13.622Z,23.11
2018-09-16T10:53:40.790Z,23.21
2018-09-16T10:56:08.058Z,23.19
2018-09-16T10:58:35.294Z,23.21
2018-09-16T11:01:02.482Z,23.32
2018-09-16T11:03:29.625Z,23.33
2018-09-16T11:05:56.953Z,23.41
2018-09-16T11:08:24.146Z,23.30
2018-09-16T11:10:51.350Z,23.34
2018-09-16T11:13:18.646Z,23.54
2018-09-16T11:15:46.291Z,23.75
2018-09-16T11:18:13.413Z,23.80
2018-09-16T11:20:40.760Z,23.95
2018-09-16T11:23:07.931Z,24.00
2018-09-16T11:25:35.168Z,23.66
2018-09-16T11:28:02.362Z,23.81
2018-09-16T11:30:29.563Z,24.03
2018-09-16T11:32:56.745Z,24.23
2018-09-16T11:35:24.054Z,24.36
2018-09-16T11:37:51.228Z,24.29
2018-09-16T11:40:18.583Z,24.33
2018-09-16T11:42:45.747Z,24.38
2018-09-16T11:45:13.553Z,24.57
2018-09-16T11:47:40.791Z,24.72
2018-09-16T11:50:08.098Z,24.84
2018-09-16T11:52:35.511Z,25.01
2018-09-16T11:55:02.828Z,24.98
2018-09-16T11:57:30.079Z,24.74
2018-09-16T11:59:57.274Z,25.01
2018-09-16T12:02:24.688Z,25.07
2018-09-16T12:04:52.278Z,24.87
2018-09-16T12:07:20.093Z,25.02
2018-09-16T12:09:47.302Z,25.27
2018-09-16T12:12:14.710Z,25.39
2018-09-16T12:14:42.059Z,25.52
2018-09-16T12:17:09.363Z,25.63
2018-09-16T12:19:36.530Z,25.83
2018-09-16T12:22:03.835Z,25.89
2018-09-16T12:24:31.086Z,25.80
2018-09-16T12:26:58.642Z,25.99
2018-09-16T12:29:26.093Z,26.02
2018-09-16T12:31:53.334Z,26.22
2018-09-16T12:34:20.584Z,26.42
2018-09-16T12:36:47.819Z,26.40
2018-09-16T12:39:14.984Z,26.55
2018-09-16T12:41:42.705Z,26.66
2018-09-16T12:44:09.927Z,26.89
2018-09-16T12:46:37.515Z,27.21
2018-09-16T12:49:04.823Z,27.35
2018-09-16T12:51:32.038Z,27.33
2018-09-16T12:53:59.852Z,27.34
2018-09-16T12:56:27.515Z,27.19
2018-09-16T12:58:54.784Z,27.32
2018-09-16T13:01:22.031Z,27.55
2018-09-16T13:03:49.253Z,27.74
2018-09-16T13:06:16.434Z,27.75
2018-09-16T13:08:43.683Z,27.79
2018-09-16T13:11:10.945Z,27.78
2018-09-16T13:13:38.418Z,27.68
2018-09-16T13:16:05.618Z,27.70
2018-09-16T13:18:33.717Z,27.77
2018-09-16T13:21:01.188Z,27.81
2018-09-16T13:23:28.477Z,27.64
2018-09-16T13:25:55.677Z,27.83
2018-09-16T13:28:23.254Z,27.80
2018-09-16T13:30:50.482Z,27.88
2018-09-16T13:33:17.729Z,28.04
2018-09-16T13:35:45.000Z,28.19
2018-09-16T13:38:12.355Z,28.24
2018-09-16T13:40:39.810Z,28.44
2018-09-16T13:43:07.081Z,28.62
2018-09-16T13:45:34.462Z,28.58
2018-09-16T13:48:01.679Z,28.72
2018-09-16T13:50:28.993Z,29.13
2018-09-16T13:52:56.267Z,29.43
2018-09-16T13:55:23.534Z,29.53
2018-09-16T13:57:50.830Z,29.30
2018-09-16T14:00:18.142Z,29.09
2018-09-16T14:02:45.362Z,28.90
2018-09-16T14:05:12.775Z,29.02
2018-09-16T14:07:40.063Z,29.16
2018-09-16T14:10:07.290Z,29.23
2018-09-16T14:12:34.552Z,29.40
2018-09-16T14:15:01.789Z,29.38
2018-09-16T14:17:29.146Z,29.57
2018-09-16T14:19:56.520Z,29.62
2018-09-16T14:22:23.967Z,29.76
2018-09-16T14:24:51.225Z,30.12
2018-09-16T14:27:18.659Z,30.30
2018-09-16T14:29:45.990Z,30.01
2018-09-16T14:32:13.430Z,29.99
2018-09-16T14:34:40.860Z,30.12
2018-09-16T14:37:08.167Z,30.03
2018-09-16T14:39:35.455Z,30.21
2018-09-16T14:42:02.847Z,30.35
2018-09-16T14:44:30.095Z,30.38
2018-09-16T14:46:57.310Z,30.29
2018-09-16T14:49:24.632Z,30.29
2018-09-16T14:51:53.182Z,30.15
2018-09-16T14:54:20.555Z,30.21
2018-09-16T14:56:47.892Z,30.42
2018-09-16T14:59:15.684Z,30.77
2018-09-16T15:01:43.022Z,30.63
2018-09-16T15:04:10.527Z,30.76
2018-09-16T15:06:37.727Z,30.85
2018-09-16T15:09:06.717Z,30.93
2018-09-16T15:11:33.972Z,31.11
2018-09-16T15:14:01.311Z,31.12
2018-09-16T15:16:28.549Z,31.12
2018-09-16T15:18:55.764Z,31.29
2018-09-16T15:21:23.003Z,30.82
2018-09-16T15:23:50.250Z,30.56
2018-09-16T15:26:17.454Z,30.87
2018-09-16T15:28:44.641Z,30.71
2018-09-16T15:31:11.822Z,30.15
2018-09-16T15:33:39.116Z,29.96
2018-09-16T15:36:06.363Z,29.64
2018-09-16T15:38:33.544Z,29.16
2018-09-16T15:41:00.874Z,28.93
2018-09-16T15:43:28.134Z,28.63
2018-09-16T15:45:55.298Z,28.50
2018-09-16T15:48:22.623Z,28.30
2018-09-16T15:50:49.771Z,28.26
2018-09-16T15:53:17.715Z,28.19
2018-09-16T15:55:45.079Z,27.96
2018-09-16T15:58:12.315Z,27.96
2018-09-16T16:00:39.499Z,27.99
2018-09-16T16:03:06.665Z,27.95
2018-09-16T16:05:33.925Z,27.76
2018-09-16T16:08:01.102Z,27.69
2018-09-16T16:10:28.679Z,27.49
2018-09-16T16:12:55.864Z,27.36
2018-09-16T16:15:24.142Z,27.24
2018-09-16T16:17:51.362Z,27.24
2018-09-16T16:20:18.598Z,27.22
2018-09-16T16:22:46.311Z,27.13
2018-09-16T16:25:13.490Z,27.27
2018-09-16T16:27:40.812Z,27.60
2018-09-16T16:30:08.094Z,27.75
2018-09-16T16:32:35.284Z,27.87
2018-09-16T16:35:02.442Z,27.51
2018-09-16T16:37:29.825Z,27.41
2018-09-16T16:39:57.183Z,27.30
2018-09-16T16:42:25.048Z,27.18
2018-09-16T16:44:52.294Z,27.14
2018-09-16T16:47:19.543Z,27.01
2018-09-16T16:49:48.113Z,26.92
2018-09-16T16:52:15.487Z,26.83
2018-09-16T16:54:43.406Z,26.80
2018-09-16T16:57:11.410Z,26.78
2018-09-16T16:59:38.578Z,26.69
2018-09-16T17:02:05.838Z,26.57
2018-09-16T17:04:33.441Z,26.59
2018-09-16T17:07:00.708Z,26.30
2018-09-16T17:09:27.907Z,26.17
2018-09-16T17:11:55.299Z,26.06
2018-09-16T17:14:22.565Z,25.91
2018-09-16T17:16:49.699Z,25.84
2018-09-16T17:19:16.890Z,25.76
2018-09-16T17:21:44.346Z,25.67
2018-09-16T17:24:11.672Z,25.52
2018-09-16T17:26:38.933Z,25.44
2018-09-16T17:29:06.202Z,25.35
2018-09-16T17:31:33.421Z,25.20
2018-09-16T17:34:00.678Z,25.10
2018-09-16T17:36:27.930Z,25.03
2018-09-16T17:38:55.135Z,25.02
2018-09-16T17:41:22.318Z,24.95
2018-09-16T17:43:49.634Z,24.83
2018-09-16T17:46:16.823Z,24.77
2018-09-16T17:48:44.201Z,24.77
2018-09-16T17:51:11.423Z,24.81
2018-09-16T17:53:38.627Z,24.71
2018-09-16T17:56:05.871Z,24.60
2018-09-16T17:58:33.050Z,24.39
2018-09-16T18:01:00.231Z,24.32
2018-09-16T18:03:27.453Z,24.08
2018-09-16T18:05:54.688Z,23.90
2018-09-16T18:08:26.511Z,23.80
2018-09-16T18:10:53.715Z,23.70
2018-09-16T18:13:20.981Z,23.62
2018-09-16T18:15:48.856Z,23.42
2018-09-16T18:18:16.103Z,23.32
2018-09-16T18:20:43.324Z,23.20
2018-09-16T18:23:10.630Z,23.19
2018-09-16T18:25:37.829Z,23.15
2018-09-16T18:28:05.116Z,23.04
2018-09-16T18:30:32.477Z,22.99
2018-09-16T18:33:01.990Z,22.97
2018-09-16T18:35:31.575Z,22.90
2018-09-16T18:37:58.900Z,22.79
2018-09-16T18:40:26.201Z,22.69
2018-09-16T18:42:53.480Z,22.54
2018-09-16T18:45:20.756Z,22.45
2018-09-16T18:47:48.453Z,22.36
2018-09-16T18:50:15.656Z,22.28
2018-09-16T18:52:42.998Z,22.20
2018-09-16T18:55:10.491Z,22.13
2018-09-16T18:57:37.856Z,22.07
2018-09-16T19:00:05.096Z,21.90
2018-09-16T19:02:32.460Z,21.61
2018-09-16T19:04:59.739Z,21.58
2018-09-16T19:07:27.432Z,21.57
2018-09-16T19:09:54.677Z,21.54
2018-09-16T19:12:22.176Z,21.48
2018-09-16T19:14:49.460Z,21.44
2018-09-16T19:17:16.790Z,21.35
2018-09-16T19:19:44.203Z,21.32
2018-09-16T19:22:12.174Z,21.16
2018-09-16T19:24:39.547Z,21.15
2018-09-16T19:27:08.478Z,21.17
2018-09-16T19:29:35.787Z,21.06
2018-09-16T19:32:03.338Z,20.94
2018-09-16T19:34:30.640Z,20.85
2018-09-16T19:36:58.141Z,20.72
2018-09-16T19:39:25.578Z,20.67
2018-09-16T19:41:52.894Z,20.64
2018-09-16T19:44:20.363Z,20.52
2018-09-16T19:46:47.553Z,20.33
2018-09-16T19:51:56.592Z,20.24
2018-09-16T19:54:24.111Z,20.29
2018-09-16T19:56:51.442Z,20.24
2018-09-16T19:59:19.191Z,20.15
2018-09-16T20:01:46.673Z,19.62
2018-09-16T20:04:13.940Z,19.98
2018-09-16T20:06:41.205Z,19.95
2018-09-16T20:09:09.652Z,19.89
2018-09-16T20:11:36.920Z,19.96
2018-09-16T20:14:04.161Z,19.94
2018-09-16T20:16:31.922Z,19.91
2018-09-16T20:18:59.187Z,19.93
2018-09-16T20:21:26.471Z,19.86
2018-09-16T20:23:54.721Z,19.64
2018-09-16T20:26:21.978Z,19.58
2018-09-16T20:28:50.167Z,19.71
2018-09-16T20:31:17.611Z,19.70
2018-09-16T20:33:45.075Z,19.57
2018-09-16T20:36:12.700Z,19.56
2018-09-16T20:38:40.012Z,19.49
2018-09-16T20:41:07.319Z,19.41
2018-09-16T20:43:34.564Z,19.39
2018-09-16T20:46:01.819Z,19.25
2018-09-16T20:48:29.094Z,19.25
2018-09-16T20:50:56.336Z,19.27
2018-09-16T20:53:23.539Z,19.17
2018-09-16T20:55:50.915Z,19.10
2018-09-16T20:58:18.213Z,19.20
2018-09-16T21:00:45.487Z,19.23
2018-09-16T21:03:12.662Z,19.22
2018-09-16T21:05:39.852Z,19.22
2018-09-16T21:08:07.155Z,19.07
2018-09-16T21:10:34.413Z,19.07
2018-09-16T21:13:01.638Z,18.91
2018-09-16T21:15:28.881Z,18.85
2018-09-16T21:17:57.079Z,18.82
2018-09-16T21:20:24.422Z,18.74
2018-09-16T21:22:51.749Z,18.91
2018-09-16T21:25:18.938Z,19.40
2018-09-16T21:27:46.177Z,19.90
2018-09-16T21:30:13.454Z,20.10
2018-09-16T21:32:40.900Z,20.15
2018-09-16T21:35:09.428Z,20.28
2018-09-16T21:37:37.009Z,20.38
2018-09-16T21:40:05.076Z,20.30
2018-09-16T21:42:33.461Z,20.27
2018-09-16T21:45:01.370Z,20.27
2018-09-16T21:47:28.874Z,20.33
2018-09-16T21:49:56.282Z,20.29
2018-09-16T21:52:23.582Z,20.24
2018-09-16T21:54:50.819Z,20.29
2018-09-16T21:57:18.302Z,20.33
2018-09-16T21:59:45.476Z,20.38
2018-09-16T22:02:12.697Z,20.39
2018-09-16T22:04:39.959Z,20.46
2018-09-16T22:07:07.357Z,20.09
2018-09-16T22:09:36.739Z,19.39
2018-09-16T22:12:04.214Z,18.77
2018-09-16T22:14:31.466Z,18.46
2018-09-16T22:16:58.780Z,18.41
2018-09-16T22:19:26.016Z,18.11
2018-09-16T22:21:53.880Z,18.02
2018-09-16T22:24:21.133Z,17.94
2018-09-16T22:26:48.570Z,17.88
2018-09-16T22:29:15.846Z,17.78
2018-09-16T22:31:43.053Z,17.65
2018-09-16T22:34:10.411Z,17.59
2018-09-16T22:36:37.689Z,17.55
2018-09-16T22:39:05.993Z,17.41
2018-09-16T22:41:33.368Z,17.35
2018-09-16T22:44:00.525Z,17.26
2018-09-16T22:46:27.848Z,17.19
2018-09-16T22:48:55.051Z,17.14
2018-09-16T22:51:22.481Z,17.16
2018-09-16T22:53:49.888Z,17.04
2018-09-16T22:56:17.302Z,17.08
2018-09-16T22:58:44.570Z,17.05
2018-09-16T23:01:11.802Z,17.00
2018-09-16T23:03:39.018Z,17.03
2018-09-16T23:06:06.483Z,17.06
2018-09-16T23:08:33.755Z,17.00
2018-09-16T23:11:00.987Z,16.86
2018-09-16T23:13:28.281Z,16.85
2018-09-16T23:15:56.233Z,16.53
2018-09-16T23:18:23.383Z,16.36
2018-09-16T23:20:50.747Z,16.36
2018-09-16T23:23:18.054Z,16.36
2018-09-16T23:25:45.327Z,16.31
2018-09-16T23:28:12.549Z,16.34
2018-09-16T23:30:39.681Z,16.41
2018-09-16T23:33:06.854Z,16.33
2018-09-16T23:35:34.049Z,16.33
2018-09-16T23:38:01.307Z,16.43
2018-09-16T23:40:28.510Z,16.46
2018-09-16T23:42:55.739Z,16.37
2018-09-16T23:45:22.992Z,16.42
2018-09-16T23:47:50.153Z,16.42
2018-09-16T23:50:17.313Z,16.43
2018-09-16T23:52:44.723Z,16.36
2018-09-16T23:55:11.942Z,16.34
2018-09-16T23:57:39.261Z,16.22
